Time;durP1;ratioP1;P1;durP2;ratioP2;P2;SDS_P1;SDS_P2;PMS_P1;PMS_P2;Temp;Humidity;BMP_temperature;BMP_pressure;BME280_temperature;BME280_humidity;BME280_pressure;Samples;Min_cycle;Max_cycle;Signal;HPM_P1;HPM_P2
2021/09/16 00:01:19;;;;;;;10.90;10.00;;;;;;;14.62;100.00;100316.00;21008654;28;20317;-64
2021/09/16 00:11:22;;;;;;;11.87;10.83;;;;;;;14.75;100.00;100316.69;21050145;28;20237;-63
2021/09/16 00:21:25;;;;;;;11.77;10.77;;;;;;;14.89;100.00;100290.53;21050260;28;20224;-63
2021/09/16 00:31:28;;;;;;;12.03;11.00;;;;;;;14.92;100.00;100280.41;21050012;28;20332;-63
2021/09/16 00:41:32;;;;;;;11.60;10.50;;;;;;;14.88;100.00;100278.09;20999944;28;20233;-63
2021/09/16 00:51:36;;;;;;;12.53;11.27;;;;;;;14.86;100.00;100271.97;21003864;28;20760;-65
2021/09/16 01:01:38;;;;;;;13.00;11.90;;;;;;;14.85;100.00;100260.41;21016472;28;20699;-64
2021/09/16 01:11:42;;;;;;;12.27;11.17;;;;;;;14.85;100.00;100259.56;21007703;28;20275;-63
2021/09/16 01:21:44;;;;;;;13.17;11.93;;;;;;;14.63;100.00;100261.31;20999121;28;20247;-63
2021/09/16 01:31:50;;;;;;;12.40;11.30;;;;;;;14.37;100.00;100263.38;21001599;28;20322;-63
2021/09/16 01:41:53;;;;;;;12.30;11.30;;;;;;;14.34;100.00;100246.69;21006097;28;20245;-63
2021/09/16 01:51:57;;;;;;;12.90;11.80;;;;;;;14.43;100.00;100239.75;20981597;28;20361;-64
2021/09/16 02:01:59;;;;;;;11.13;10.23;;;;;;;14.55;100.00;100226.19;21000286;28;20242;-64
2021/09/16 02:12:03;;;;;;;10.77;9.87;;;;;;;14.59;100.00;100219.59;20998904;28;20268;-63
2021/09/16 02:22:05;;;;;;;11.30;10.23;;;;;;;14.59;100.00;100208.84;20994711;28;20810;-63
2021/09/16 02:32:10;;;;;;;12.57;11.37;;;;;;;14.62;100.00;100195.13;21006436;28;20788;-64
2021/09/16 02:42:12;;;;;;;12.83;11.63;;;;;;;14.67;100.00;100194.75;20997702;28;20252;-63
2021/09/16 02:52:18;;;;;;;12.83;10.90;;;;;;;14.77;100.00;100184.94;20982432;28;20313;-64
2021/09/16 03:02:20;;;;;;;13.07;11.70;;;;;;;14.81;100.00;100180.19;21012381;28;20236;-63
2021/09/16 03:12:24;;;;;;;13.47;12.17;;;;;;;14.89;100.00;100172.31;20980361;28;20233;-63
2021/09/16 03:22:26;;;;;;;11.97;10.87;;;;;;;14.96;100.00;100170.84;21005991;28;21455;-63
2021/09/16 03:32:30;;;;;;;12.40;11.30;;;;;;;14.99;100.00;100160.66;20985420;28;20229;-63
2021/09/16 03:42:33;;;;;;;11.60;10.70;;;;;;;15.01;100.00;100156.00;21039020;28;20271;-63
2021/09/16 03:52:37;;;;;;;12.67;11.47;;;;;;;15.01;100.00;100152.47;21052751;28;20226;-64
2021/09/16 04:02:40;;;;;;;12.80;11.70;;;;;;;15.04;100.00;100144.16;21041536;28;20320;-63
2021/09/16 04:12:43;;;;;;;12.30;11.10;;;;;;;15.05;100.00;100148.53;21050718;28;20848;-63
2021/09/16 04:22:45;;;;;;;13.03;11.93;;;;;;;15.06;100.00;100137.66;21017946;28;20704;-63
2021/09/16 04:32:49;;;;;;;12.17;11.03;;;;;;;15.07;100.00;100138.53;21037948;28;20237;-63
2021/09/16 04:42:51;;;;;;;11.40;10.33;;;;;;;15.14;100.00;100150.44;21015155;28;20237;-65
2021/09/16 04:52:55;;;;;;;12.13;11.10;;;;;;;15.23;100.00;100149.63;21029050;28;20234;-63
2021/09/16 05:02:57;;;;;;;10.93;9.93;;;;;;;15.38;100.00;100142.94;21016004;28;20324;-66
2021/09/16 05:13:01;;;;;;;11.10;10.07;;;;;;;15.49;100.00;100140.16;21005217;28;20222;-63
2021/09/16 05:23:03;;;;;;;9.80;8.90;;;;;;;15.79;100.00;100144.72;20992501;28;20657;-64
2021/09/16 05:33:10;;;;;;;12.37;11.33;;;;;;;15.93;100.00;100131.88;20991345;28;20702;-64
2021/09/16 05:43:12;;;;;;;14.03;12.73;;;;;;;15.76;100.00;100109.16;20986583;28;20312;-62
2021/09/16 05:53:16;;;;;;;13.80;12.50;;;;;;;15.69;100.00;100086.50;20989252;28;20317;-62
2021/09/16 06:03:18;;;;;;;12.00;10.90;;;;;;;16.03;100.00;100105.84;20989273;28;20318;-62
2021/09/16 06:13:22;;;;;;;12.80;11.70;;;;;;;16.39;100.00;100112.41;20989090;28;20284;-61
2021/09/16 06:23:24;;;;;;;12.17;11.07;;;;;;;16.69;100.00;100117.69;20988464;28;20747;-62
2021/09/16 06:33:28;;;;;;;10.63;9.63;;;;;;;16.66;100.00;100120.69;20987923;28;20234;-62
2021/09/16 06:43:31;;;;;;;11.80;10.70;;;;;;;16.75;100.00;100130.59;20987262;28;20227;-62
2021/09/16 06:53:35;;;;;;;13.07;12.03;;;;;;;16.37;100.00;100120.63;20986766;28;20597;-62
2021/09/16 07:03:37;;;;;;;13.50;12.30;;;;;;;16.38;100.00;100119.63;20986453;28;20233;-65
2021/09/16 07:13:41;;;;;;;15.77;14.37;;;;;;;16.17;100.00;100097.38;20989562;28;20219;-62
2021/09/16 07:23:44;;;;;;;13.10;12.00;;;;;;;16.70;100.00;100100.53;20991236;28;20227;-65
2021/09/16 07:33:48;;;;;;;12.03;11.03;;;;;;;17.68;100.00;100096.59;21001069;28;20313;-62
2021/09/16 07:43:50;;;;;;;11.90;10.90;;;;;;;18.70;100.00;100100.78;21000619;28;20657;-60
2021/09/16 07:53:54;;;;;;;10.53;9.70;;;;;;;19.81;100.00;100112.66;20999968;28;20284;-63
2021/09/16 08:03:56;;;;;;;10.13;9.23;;;;;;;20.66;100.00;100115.09;20999306;28;20235;-62
2021/09/16 08:14:00;;;;;;;10.37;9.47;;;;;;;20.92;100.00;100112.22;20998440;28;20229;-62
2021/09/16 08:24:02;;;;;;;11.93;10.90;;;;;;;21.63;100.00;100108.75;20996811;28;20288;-62
2021/09/16 08:34:06;;;;;;;10.50;9.63;;;;;;;22.42;100.00;100113.16;20997089;28;20575;-63
2021/09/16 08:44:08;;;;;;;12.73;11.63;;;;;;;23.03;100.00;100124.97;20995888;28;20240;-63
2021/09/16 08:54:12;;;;;;;12.40;11.40;;;;;;;23.45;100.00;100099.84;20995313;28;20226;-61
2021/09/16 09:04:15;;;;;;;14.77;13.47;;;;;;;23.94;100.00;100094.69;20994479;28;20270;-63
2021/09/16 09:14:20;;;;;;;14.13;12.93;;;;;;;23.87;100.00;100090.22;20993622;28;20222;-63
2021/09/16 09:24:34;;;;;;;16.73;15.03;;;;;;;23.43;100.00;100082.00;20993117;28;20255;-62
2021/09/16 09:34:41;;;;;;;13.33;12.03;;;;;;;24.53;100.00;100097.28;20991886;28;20218;-63
2021/09/16 09:44:43;;;;;;;14.87;13.37;;;;;;;25.04;100.00;100088.97;20990538;28;20249;-62
2021/09/16 09:54:47;;;;;;;13.38;12.27;;;;;;;25.56;100.00;100083.06;20990529;28;20219;-63
2021/09/16 10:04:49;;;;;;;13.32;12.13;;;;;;;26.03;100.00;100100.56;20989763;28;20246;-64
2021/09/16 10:14:53;;;;;;;15.05;13.60;;;;;;;25.85;100.00;100087.41;20989110;28;20256;-64
2021/09/16 10:24:56;;;;;;;13.93;12.73;;;;;;;26.21;100.00;100100.81;20988450;28;20596;-62
2021/09/16 10:35:16;;;;;;;12.70;11.60;;;;;;;26.94;88.93;100106.50;20987318;28;20226;-63
2021/09/16 10:45:27;;;;;;;14.73;13.32;;;;;;;27.10;85.12;100109.69;20986989;28;20714;-63
2021/09/16 10:55:40;;;;;;;15.60;14.20;;;;;;;26.37;100.00;100097.75;20986554;28;20242;-68
2021/09/16 11:06:01;;;;;;;15.00;13.50;;;;;;;25.44;94.44;100090.97;20986394;28;20226;-64
2021/09/16 11:16:05;;;;;;;14.93;13.50;;;;;;;25.79;100.00;100088.25;20985749;28;20226;-63
2021/09/16 11:26:14;;;;;;;14.02;12.68;;;;;;;26.14;100.00;100070.72;20985447;28;20265;-65
2021/09/16 11:36:30;;;;;;;14.23;13.02;;;;;;;26.82;100.00;100071.50;20998245;27;20568;-60
2021/09/16 11:46:48;;;;;;;12.82;11.43;;;;;;;27.70;100.00;100082.22;21064100;27;20579;-62
2021/09/16 11:57:07;;;;;;;14.23;13.02;;;;;;;28.43;100.00;100067.13;20991400;27;20626;-62
2021/09/16 12:07:24;;;;;;;13.75;12.70;;;;;;;28.26;99.92;100053.06;21065379;27;20570;-62
2021/09/16 12:17:41;;;;;;;14.40;13.20;;;;;;;27.71;100.00;100042.78;21062933;27;21084;-62
2021/09/16 12:28:04;;;;;;;12.75;11.55;;;;;;;27.80;97.29;100027.75;21061176;27;20616;-62
2021/09/16 12:38:24;;;;;;;12.40;11.20;;;;;;;28.24;100.00;100033.28;21154562;27;20555;-63
2021/09/16 12:48:44;;;;;;;12.65;11.63;;;;;;;28.11;93.01;100027.81;21235278;27;21098;-62
2021/09/16 12:59:18;;;;;;;14.25;12.85;;;;;;;27.32;98.88;100019.88;20907565;27;20581;-64
2021/09/16 13:09:39;;;;;;;13.05;11.75;;;;;;;26.60;100.00;99998.84;20982889;27;20576;-64
2021/09/16 13:20:06;;;;;;;13.17;11.97;;;;;;;25.52;100.00;99988.84;21076282;27;20625;-62
2021/09/16 13:40:48;;;;;;;11.27;10.27;;;;;;;23.90;100.00;100008.91;20978594;27;20653;-61
2021/09/16 13:51:10;;;;;;;12.67;11.67;;;;;;;22.87;100.00;100018.97;21243845;27;20886;-62
2021/09/16 14:01:27;;;;;;;14.67;13.37;;;;;;;21.72;100.00;100007.22;21074908;27;20567;-65
2021/09/16 14:11:47;;;;;;;10.27;9.47;;;;;;;20.90;100.00;100011.19;21061852;27;20575;-60
2021/09/16 14:22:05;;;;;;;5.77;5.27;;;;;;;20.52;100.00;99998.38;20634284;28;20941;-66
2021/09/16 14:32:22;;;;;;;4.90;4.47;;;;;;;20.43;100.00;100014.63;21093598;27;1340472;-71
2021/09/16 14:42:44;;;;;;;7.37;6.60;;;;;;;20.65;100.00;100006.84;21148160;27;20573;-68
2021/09/16 14:53:04;;;;;;;6.10;5.70;;;;;;;20.96;100.00;100007.78;21008577;27;20688;-67
2021/09/16 15:03:23;;;;;;;4.97;4.57;;;;;;;21.03;100.00;100006.06;21000631;27;22871;-67
2021/09/16 15:13:46;;;;;;;4.17;3.87;;;;;;;21.04;100.00;99998.78;21059351;27;20642;-68
2021/09/16 15:24:04;;;;;;;4.10;3.90;;;;;;;21.20;100.00;99991.47;21226930;27;20572;-67
2021/09/16 15:34:23;;;;;;;4.80;4.40;;;;;;;20.97;100.00;99987.78;20996294;27;20601;-68
2021/09/16 15:44:44;;;;;;;5.43;5.03;;;;;;;20.54;100.00;100001.72;21135470;27;20588;-68
2021/09/16 15:55:03;;;;;;;6.97;6.47;;;;;;;20.14;100.00;99992.56;21008278;27;20591;-68
2021/09/16 16:05:20;;;;;;;6.73;6.23;;;;;;;20.01;100.00;99984.09;21216033;27;1566930;-68
2021/09/16 16:15:42;;;;;;;5.97;5.40;;;;;;;20.12;100.00;99991.88;20961348;27;20592;-70
2021/09/16 16:26:05;;;;;;;4.40;4.10;;;;;;;20.23;100.00;99994.25;20976557;27;20590;-69
2021/09/16 16:36:30;;;;;;;3.30;3.10;;;;;;;19.98;100.00;100000.66;21066597;27;20580;-67
2021/09/16 16:46:54;;;;;;;2.90;2.70;;;;;;;19.60;100.00;100002.94;20879078;27;22636;-65
2021/09/16 16:57:13;;;;;;;3.27;3.00;;;;;;;19.26;100.00;100011.06;20888614;27;20571;-70
2021/09/16 17:07:38;;;;;;;3.53;3.23;;;;;;;19.01;100.00;100006.53;20845418;27;20575;-70
2021/09/16 17:18:01;;;;;;;4.50;4.10;;;;;;;18.83;100.00;100009.28;20918646;27;20886;-65
2021/09/16 17:28:19;;;;;;;5.60;5.20;;;;;;;18.71;100.00;100015.97;20966636;27;20566;-69
2021/09/16 17:38:52;;;;;;;7.03;6.43;;;;;;;18.61;100.00;100026.00;21006430;27;20593;-71
2021/09/16 17:49:07;;;;;;;7.70;7.10;;;;;;;18.47;100.00;100026.56;20906821;27;1341824;-65
2021/09/16 17:59:10;;;;;;;9.37;8.50;;;;;;;18.28;100.00;100031.13;20957467;28;20218;-64
2021/09/16 18:09:29;;;;;;;8.37;7.67;;;;;;;18.23;100.00;100032.59;20810029;27;20569;-65
2021/09/16 18:19:47;;;;;;;9.40;8.70;;;;;;;18.20;100.00;100039.16;20884931;27;20719;-66
2021/09/16 18:30:07;;;;;;;8.57;7.97;;;;;;;18.15;100.00;100036.03;20890221;27;1490306;-67
2021/09/16 18:40:27;;;;;;;9.90;8.93;;;;;;;18.14;100.00;100031.66;20983219;27;20920;-66
2021/09/16 18:50:36;;;;;;;9.20;8.40;;;;;;;18.18;100.00;100037.59;20969683;28;20808;-66
2021/09/16 19:00:40;;;;;;;10.57;9.60;;;;;;;18.08;100.00;100029.56;20948524;28;20226;-62
2021/09/16 19:10:43;;;;;;;11.17;10.07;;;;;;;17.81;100.00;100030.47;20974598;27;20223;-68
2021/09/16 19:20:49;;;;;;;13.63;12.33;;;;;;;17.56;100.00;100034.69;20944105;28;20226;-70
2021/09/16 19:30:54;;;;;;;11.77;10.67;;;;;;;17.46;100.00;100028.50;20969696;28;21009;-67
2021/09/16 19:41:02;;;;;;;11.77;10.67;;;;;;;17.43;100.00;100022.56;20941095;28;20219;-67
2021/09/16 19:51:11;;;;;;;10.90;9.90;;;;;;;17.40;100.00;100025.53;20929094;28;20231;-69
2021/09/16 20:01:16;;;;;;;9.40;8.47;;;;;;;17.41;100.00;100025.41;20907222;28;20294;-70
2021/09/16 20:11:20;;;;;;;11.07;10.00;;;;;;;17.45;100.00;100025.97;20918426;28;21461;-69
2021/09/16 20:21:34;;;;;;;14.63;13.17;;;;;;;17.45;100.00;100024.09;20918017;28;20325;-67
2021/09/16 20:31:37;;;;;;;15.70;14.00;;;;;;;17.53;100.00;100035.00;20920353;28;20234;-65
2021/09/16 20:41:41;;;;;;;17.73;15.93;;;;;;;17.64;100.00;100034.81;20919042;28;20325;-67
2021/09/16 20:51:43;;;;;;;15.13;13.73;;;;;;;17.62;100.00;100023.31;20905022;28;21175;-67
2021/09/16 21:01:47;;;;;;;17.27;15.30;;;;;;;17.68;100.00;100037.22;20924539;28;20294;-63
2021/09/16 21:11:50;;;;;;;14.90;13.40;;;;;;;17.64;100.00;100048.31;20896825;28;21806;-67
2021/09/16 21:21:56;;;;;;;13.83;12.50;;;;;;;17.59;100.00;100034.41;20934106;27;20350;-64
2021/09/16 21:31:58;;;;;;;14.40;13.00;;;;;;;17.61;100.00;100047.75;20888624;28;20235;-65
2021/09/16 21:42:02;;;;;;;16.00;14.30;;;;;;;17.59;100.00;100039.81;20909320;28;21246;-68
2021/09/16 21:52:05;;;;;;;13.93;12.53;;;;;;;17.58;100.00;100032.69;20910218;28;20230;-67
2021/09/16 22:02:09;;;;;;;13.80;12.50;;;;;;;17.56;100.00;100055.44;20917395;28;20223;-68
2021/09/16 22:12:17;;;;;;;14.87;13.47;;;;;;;17.50;100.00;100045.25;20908275;28;20245;-68
2021/09/16 22:22:20;;;;;;;15.77;14.17;;;;;;;17.47;100.00;100051.78;20962582;28;20646;-66
2021/09/16 22:32:23;;;;;;;17.00;15.23;;;;;;;17.46;100.00;100052.78;20974056;28;20310;-66
2021/09/16 22:42:26;;;;;;;15.87;14.10;;;;;;;17.45;100.00;100037.59;20941411;28;20219;-68
2021/09/16 22:52:29;;;;;;;13.97;12.63;;;;;;;17.42;100.00;100027.09;20899439;28;20735;-66
2021/09/16 23:02:32;;;;;;;13.87;12.57;;;;;;;17.41;100.00;100022.69;20883649;28;20507;-67
2021/09/16 23:12:38;;;;;;;13.53;12.03;;;;;;;17.37;100.00;100018.63;20972019;28;20230;-66
2021/09/16 23:22:42;;;;;;;15.07;13.47;;;;;;;17.11;100.00;100022.97;20967302;28;20260;-66
2021/09/16 23:32:45;;;;;;;23.63;19.67;;;;;;;17.02;100.00;100026.56;20950497;28;20231;-66
2021/09/16 23:42:49;;;;;;;20.40;17.50;;;;;;;17.00;100.00;100015.09;20981053;28;20288;-66
2021/09/16 23:52:51;;;;;;;14.90;13.33;;;;;;;16.80;100.00;100008.88;20970759;28;20238;-65
